地図

経路データ

SID SEASON NUMBER BASIN SUBBASIN NAME ISO_TIME NATURE LAT LON WMO_WIND WMO_PRES WMO_AGENCY TRACK_TYPE DIST2LAND LANDFALL IFLAG USA_AGENCY USA_ATCF_ID USA_LAT USA_LON USA_RECORD USA_STATUS USA_WIND USA_PRES USA_SSHS USA_R34_NE USA_R34_SE USA_R34_SW USA_R34_NW USA_R50_NE USA_R50_SE USA_R50_SW USA_R50_NW USA_R64_NE USA_R64_SE USA_R64_SW USA_R64_NW USA_POCI USA_ROCI USA_RMW USA_EYE TOKYO_LAT TOKYO_LON TOKYO_GRADE TOKYO_WIND TOKYO_PRES TOKYO_R50_DIR TOKYO_R50_LONG TOKYO_R50_SHORT TOKYO_R30_DIR TOKYO_R30_LONG TOKYO_R30_SHORT TOKYO_LAND CMA_LAT CMA_LON CMA_CAT CMA_WIND CMA_PRES HKO_LAT HKO_LON HKO_CAT HKO_WIND HKO_PRES NEWDELHI_LAT NEWDELHI_LON NEWDELHI_GRADE NEWDELHI_WIND NEWDELHI_PRES NEWDELHI_CI NEWDELHI_DP NEWDELHI_POCI REUNION_LAT REUNION_LON REUNION_TYPE REUNION_WIND REUNION_PRES REUNION_TNUM REUNION_CI REUNION_RMW REUNION_R34_NE REUNION_R34_SE REUNION_R34_SW REUNION_R34_NW REUNION_R50_NE REUNION_R50_SE REUNION_R50_SW REUNION_R50_NW REUNION_R64_NE REUNION_R64_SE REUNION_R64_SW REUNION_R64_NW BOM_LAT BOM_LON BOM_TYPE BOM_WIND BOM_PRES BOM_TNUM BOM_CI BOM_RMW BOM_R34_NE BOM_R34_SE BOM_R34_SW BOM_R34_NW BOM_R50_NE BOM_R50_SE BOM_R50_SW BOM_R50_NW BOM_R64_NE BOM_R64_SE BOM_R64_SW BOM_R64_NW BOM_ROCI BOM_POCI BOM_EYE BOM_POS_METHOD BOM_PRES_METHOD NADI_LAT NADI_LON NADI_CAT NADI_WIND NADI_PRES WELLINGTON_LAT WELLINGTON_LON WELLINGTON_WIND WELLINGTON_PRES DS824_LAT DS824_LON DS824_STAGE DS824_WIND DS824_PRES TD9636_LAT TD9636_LON TD9636_STAGE TD9636_WIND TD9636_PRES TD9635_LAT TD9635_LON TD9635_WIND TD9635_PRES TD9635_ROCI NEUMANN_LAT NEUMANN_LON NEUMANN_CLASS NEUMANN_WIND NEUMANN_PRES MLC_LAT MLC_LON MLC_CLASS MLC_WIND MLC_PRES USA_GUST BOM_GUST BOM_GUST_PER REUNION_GUST REUNION_GUST_PER USA_SEAHGT USA_SEARAD_NE USA_SEARAD_SE USA_SEARAD_SW USA_SEARAD_NW STORM_SPEED STORM_DIR
1975241N10260 1975 81 EP MM KATRINA 1975-08-28 18:00:00 NR 10.0000 -100.000 main 712 703 __________O___ -1 10.0000 -100.000 1 30 11 298
1975241N10260 1975 81 EP MM KATRINA 1975-08-28 21:00:00 NR 10.2587 -100.500 main 702 695 __________P___ -1 10.2587 -100.500 1 32 11 297
1975241N10260 1975 81 EP MM KATRINA 1975-08-29 00:00:00 TS 10.5000 -101.000 35 hurdat_epa main 699 693 O________OO___ hurdat_epa EP111975 10.5000 -101.000 TS 35 0 10.5000 -101.000 TC 35 10.5000 -101.000 2 35 11 295
1975241N10260 1975 81 EP MM KATRINA 1975-08-29 03:00:00 TS 10.7088 -101.504 main 699 691 P________PP___ EP111975 10.7077 -101.507 TS 35 0 10.7077 -101.507 TC 35 10.7111 -101.499 2 37 11 292
1975241N10260 1975 81 EP MM KATRINA 1975-08-29 06:00:00 TS 10.8986 -101.997 35 hurdat_epa main 695 691 O________OP___ hurdat_epa EP111975 10.9000 -102.000 TS 35 0 10.9000 -102.000 TC 35 10.8942 -101.988 2 40 10 291
1975241N10260 1975 81 EP MM KATRINA 1975-08-29 09:00:00 TS 11.0630 -102.464 main 696 695 P________PP___ EP111975 11.0649 -102.465 TS 40 0 11.0649 -102.465 TC 40 11.0552 -102.458 2 42 9 289
1975241N10260 1975 81 EP MM KATRINA 1975-08-29 12:00:00 TS 11.2000 -102.900 45 hurdat_epa main 706 705 O________OO___ hurdat_epa EP111975 11.2000 -102.900 TS 45 0 11.2000 -102.900 TC 45 11.2000 -102.900 2 45 9 286
1975241N10260 1975 81 EP MM KATRINA 1975-08-29 15:00:00 TS 11.3078 -103.316 main 712 709 P________PP___ EP111975 11.2999 -103.315 TS 55 0 11.2999 -103.315 TC 55 11.3392 -103.320 2 50 8 285
1975241N10260 1975 81 EP MM KATRINA 1975-08-29 18:00:00 TS 11.4130 -103.702 65 hurdat_epa main 717 711 O________OP___ hurdat_epa EP111975 11.4000 -103.700 HU 65 1 11.4000 -103.700 TC 65 11.4648 -103.710 2 55 8 289
1975241N10260 1975 81 EP MM KATRINA 1975-08-29 21:00:00 TS 11.5566 -104.066 main 715 715 P________PP___ EP111975 11.5500 -104.065 HU 65 1 11.5500 -104.065 TC 65 11.5830 -104.070 2 60 7 293
1975241N10260 1975 81 EP MM KATRINA 1975-08-30 00:00:00 TS 11.7000 -104.400 65 hurdat_epa main 720 720 O________OO___ hurdat_epa EP111975 11.7000 -104.400 HU 65 1 11.7000 -104.400 TC 65 11.7000 -104.400 4 65 7 291
1975241N10260 1975 81 EP MM KATRINA 1975-08-30 03:00:00 TS 11.8057 -104.714 main 727 726 P________PP___ EP111975 11.8000 -104.715 HU 67 1 11.8000 -104.715 TC 67 11.8289 -104.712 4 66 6 290
1975241N10260 1975 81 EP MM KATRINA 1975-08-30 06:00:00 TS 11.9115 -104.999 70 hurdat_epa main 729 722 O________OP___ hurdat_epa EP111975 11.9000 -105.000 HU 70 1 11.9000 -105.000 TC 70 11.9573 -104.995 4 67 6 295
1975241N10260 1975 81 EP MM KATRINA 1975-08-30 09:00:00 TS 12.0564 -105.263 main 719 711 P________PP___ EP111975 12.0500 -105.265 HU 70 1 12.0500 -105.265 TC 70 12.0820 -105.256 4 68 6 301
1975241N10260 1975 81 EP MM KATRINA 1975-08-30 12:00:00 TS 12.2000 -105.500 70 hurdat_epa main 715 708 O________OO___ hurdat_epa EP111975 12.2000 -105.500 HU 70 1 12.2000 -105.500 TC 70 12.2000 -105.500 4 70 5 300
1975241N10260 1975 81 EP MM KATRINA 1975-08-30 15:00:00 TS 12.2992 -105.702 main 711 704 P________PP___ EP111975 12.3074 -105.700 HU 70 1 12.3074 -105.700 TC 70 12.2662 -105.707 4 70 4 295
1975241N10260 1975 81 EP MM KATRINA 1975-08-30 18:00:00 TS 12.3864 -105.901 70 hurdat_epa main 708 706 O________OP___ hurdat_epa EP111975 12.4000 -105.900 HU 70 1 12.4000 -105.900 TC 70 12.3320 -105.906 4 70 4 292
1975241N10260 1975 81 EP MM KATRINA 1975-08-30 21:00:00 TS 12.4623 -106.115 main 706 705 P________PP___ EP111975 12.4699 -106.113 HU 70 1 12.4699 -106.113 TC 70 12.4318 -106.126 4 70 5 294
1975241N10260 1975 81 EP MM KATRINA 1975-08-31 00:00:00 TS 12.6000 -106.400 70 hurdat_epa main 709 704 O________OO___ hurdat_epa EP111975 12.6000 -106.400 HU 70 1 12.6000 -106.400 TC 70 12.6000 -106.400 4 70 8 300
1975241N10260 1975 81 EP MM KATRINA 1975-08-31 03:00:00 TS 12.8557 -106.818 main 700 694 P________PP___ EP111975 12.8551 -106.827 HU 70 1 12.8551 -106.827 TC 70 12.8582 -106.779 4 68 11 305
1975241N10260 1975 81 EP MM KATRINA 1975-08-31 06:00:00 TS 13.1976 -107.282 70 hurdat_epa main 700 691 O________OP___ hurdat_epa EP111975 13.2000 -107.300 HU 70 1 13.2000 -107.300 TC 70 13.1880 -107.212 4 67 11 310
1975241N10260 1975 81 EP MM KATRINA 1975-08-31 09:00:00 TS 13.5767 -107.699 main 691 679 P________PP___ EP111975 13.5774 -107.708 HU 70 1 13.5774 -107.708 TC 70 13.5738 -107.664 4 66 11 315
1975241N10260 1975 81 EP MM KATRINA 1975-08-31 12:00:00 TS 14.0000 -108.100 70 hurdat_epa main 679 659 O________OO___ hurdat_epa EP111975 14.0000 -108.100 HU 70 1 14.0000 -108.100 TC 70 14.0000 -108.100 4 65 12 318
1975241N10260 1975 81 EP MM KATRINA 1975-08-31 15:00:00 TS 14.4382 -108.512 main 666 649 P________PP___ EP111975 14.4350 -108.515 HU 70 1 14.4350 -108.515 TC 70 14.4512 -108.500 4 67 12 320
1975241N10260 1975 81 EP MM KATRINA 1975-08-31 18:00:00 TS 14.9070 -108.895 70 hurdat_epa main 649 631 O________OP___ hurdat_epa EP111975 14.9000 -108.900 HU 70 1 14.9000 -108.900 TC 70 14.9350 -108.875 4 70 12 324
1975241N10260 1975 81 EP MM KATRINA 1975-08-31 21:00:00 TS 15.4052 -109.226 main 631 615 P________PP___ EP111975 15.3999 -109.230 HU 72 1 15.3999 -109.230 TC 72 15.4263 -109.212 4 72 12 330
1975241N10260 1975 81 EP MM KATRINA 1975-09-01 00:00:00 TS 15.9000 -109.500 75 hurdat_epa main 615 600 O________OO___ hurdat_epa EP111975 15.9000 -109.500 HU 75 1 15.9000 -109.500 TC 75 15.9000 -109.500 4 75 11 334
1975241N10260 1975 81 EP MM KATRINA 1975-09-01 03:00:00 TS 16.3671 -109.722 main 593 581 P________PP___ EP111975 16.3724 -109.723 HU 77 1 16.3724 -109.723 TC 77 16.3455 -109.722 4 76 10 337
1975241N10260 1975 81 EP MM KATRINA 1975-09-01 06:00:00 TS 16.7934 -109.899 80 hurdat_epa main 584 568 O________OP___ hurdat_epa EP111975 16.8000 -109.900 HU 80 1 16.8000 -109.900 TC 80 16.7670 -109.896 4 77 9 339
1975241N10260 1975 81 EP MM KATRINA 1975-09-01 09:00:00 TS 17.1750 -110.049 main 568 565 P________PP___ EP111975 17.1799 -110.050 HU 80 1 17.1799 -110.050 TC 80 17.1550 -110.047 4 78 8 338
1975241N10260 1975 81 EP MM KATRINA 1975-09-01 12:00:00 TS 17.5000 -110.200 80 hurdat_epa main 568 562 O________OO___ hurdat_epa EP111975 17.5000 -110.200 HU 80 1 17.5000 -110.200 TC 80 17.5000 -110.200 4 80 7 331
1975241N10260 1975 81 EP MM KATRINA 1975-09-01 15:00:00 TS 17.7714 -110.393 main 571 551 P________PP___ EP111975 17.7650 -110.393 HU 80 1 17.7650 -110.393 TC 80 17.7971 -110.393 4 80 6 323
1975241N10260 1975 81 EP MM KATRINA 1975-09-01 18:00:00 TS 18.0105 -110.599 80 hurdat_epa main 551 530 O________OP___ hurdat_epa EP111975 18.0000 -110.600 HU 80 1 18.0000 -110.600 TC 80 18.0524 -110.593 4 80 6 321
1975241N10260 1975 81 EP MM KATRINA 1975-09-01 21:00:00 TS 18.2563 -110.799 main 521 502 P________PP___ EP111975 18.2500 -110.800 HU 80 1 18.2500 -110.800 TC 80 18.2815 -110.796 4 80 6 322
1975241N10260 1975 81 EP MM KATRINA 1975-09-02 00:00:00 TS 18.5000 -111.000 80 hurdat_epa main 502 483 O________OO___ hurdat_epa EP111975 18.5000 -111.000 HU 80 1 18.5000 -111.000 TC 80 18.5000 -111.000 4 80 6 323
1975241N10260 1975 81 EP MM KATRINA 1975-09-02 03:00:00 TS 18.7557 -111.201 main 475 459 P________PP___ EP111975 18.7575 -111.200 HU 82 1 18.7575 -111.200 TC 82 18.7484 -111.204 4 82 6 323
1975241N10260 1975 81 EP MM KATRINA 1975-09-02 06:00:00 TS 18.9975 -111.402 85 hurdat_epa main 459 445 O________OP___ hurdat_epa EP111975 19.0000 -111.400 HU 85 2 19.0000 -111.400 TC 85 18.9875 -111.408 4 85 6 320
1975241N10260 1975 81 EP MM KATRINA 1975-09-02 09:00:00 TS 19.2196 -111.607 main 445 433 P________PP___ EP111975 19.2225 -111.608 HU 87 2 19.2225 -111.608 TC 87 19.2078 -111.607 4 87 6 317
1975241N10260 1975 81 EP MM KATRINA 1975-09-02 12:00:00 TS 19.4000 -111.800 90 hurdat_epa main 433 428 O________OO___ hurdat_epa EP111975 19.4000 -111.800 HU 90 2 19.4000 -111.800 TC 90 19.4000 -111.800 4 90 4 312
1975241N10260 1975 81 EP MM KATRINA 1975-09-02 15:00:00 TS 19.5167 -111.953 main 433 423 P________PP___ EP111975 19.5074 -111.950 HU 90 2 19.5074 -111.950 TC 90 19.5535 -111.962 4 92 4 307
1975241N10260 1975 81 EP MM KATRINA 1975-09-02 18:00:00 TS 19.6159 -112.104 90 hurdat_epa main 428 418 O________OP___ hurdat_epa EP111975 19.6000 -112.100 HU 90 2 19.6000 -112.100 TC 90 19.6796 -112.121 4 95 4 307
1975241N10260 1975 81 EP MM KATRINA 1975-09-02 21:00:00 TS 19.7521 -112.281 main 420 417 P________PP___ EP111975 19.7424 -112.278 HU 90 2 19.7424 -112.278 TC 90 19.7909 -112.294 4 97 5 307
1975241N10260 1975 81 EP MM KATRINA 1975-09-03 00:00:00 TS 19.9000 -112.500 90 hurdat_epa main 423 421 O________OO___ hurdat_epa EP111975 19.9000 -112.500 HU 90 2 19.9000 -112.500 TC 90 19.9000 -112.500 4 100 6 303
1975241N10260 1975 81 EP MM KATRINA 1975-09-03 03:00:00 TS 20.0510 -112.778 main 426 426 P________PP___ EP111975 20.0575 -112.785 HU 100 3 20.0575 -112.785 TC 100 20.0249 -112.752 4 103 6 298
1975241N10260 1975 81 EP MM KATRINA 1975-09-03 06:00:00 TS 20.1900 -113.088 110 hurdat_epa main 440 440 O________OP___ hurdat_epa EP111975 20.2000 -113.100 HU 110 3 20.2000 -113.100 TC 110 20.1499 -113.040 4 107 6 293
1975241N10260 1975 81 EP MM KATRINA 1975-09-03 09:00:00 TS 20.2949 -113.386 main 456 456 P________PP___ EP111975 20.2999 -113.393 HU 112 3 20.2999 -113.393 TC 112 20.2749 -113.358 4 111 6 290
1975241N10260 1975 81 EP MM KATRINA 1975-09-03 12:00:00 TS 20.4000 -113.700 115 hurdat_epa main 473 473 O________OO___ hurdat_epa EP111975 20.4000 -113.700 HU 115 4 20.4000 -113.700 TC 115 20.4000 -113.700 4 115 7 292
1975241N10260 1975 81 EP MM KATRINA 1975-09-03 15:00:00 TS 20.5457 -114.036 main 492 492 P________PP___ EP111975 20.5499 -114.035 HU 112 3 20.5499 -114.035 TC 112 20.5288 -114.041 4 113 7 294
1975241N10260 1975 81 EP MM KATRINA 1975-09-03 18:00:00 TS 20.6914 -114.401 110 hurdat_epa main 501 501 O________OP___ hurdat_epa EP111975 20.7000 -114.400 HU 110 3 20.7000 -114.400 TC 110 20.6571 -114.405 4 112 7 290
1975241N10260 1975 81 EP MM KATRINA 1975-09-03 21:00:00 TS 20.8023 -114.786 main 515 515 P________PP___ EP111975 20.8074 -114.785 HU 110 3 20.8074 -114.785 TC 110 20.7819 -114.791 4 111 8 286
1975241N10260 1975 81 EP MM KATRINA 1975-09-04 00:00:00 TS 20.9000 -115.200 110 hurdat_epa main 530 530 O________OO___ hurdat_epa EP111975 20.9000 -115.200 HU 110 3 20.9000 -115.200 TC 110 20.9000 -115.200 4 110 8 284
1975241N10260 1975 81 EP MM KATRINA 1975-09-04 03:00:00 TS 21.0013 -115.638 main 547 547 P________PP___ EP111975 20.9999 -115.643 HU 107 3 20.9999 -115.643 TC 107 21.0069 -115.621 4 107 9 284
1975241N10260 1975 81 EP MM KATRINA 1975-09-04 06:00:00 TS 21.1014 -116.093 105 hurdat_epa main 574 574 O________OP___ hurdat_epa EP111975 21.1000 -116.100 HU 105 3 21.1000 -116.100 TC 105 21.1071 -116.063 4 105 9 283
1975241N10260 1975 81 EP MM KATRINA 1975-09-04 09:00:00 TS 21.2006 -116.539 main 596 596 P________PP___ EP111975 21.1998 -116.543 HU 97 3 21.1998 -116.543 TC 97 21.2037 -116.524 4 102 9 283
1975241N10260 1975 81 EP MM KATRINA 1975-09-04 12:00:00 TS 21.3000 -117.000 90 hurdat_epa main 627 627 O________OO___ hurdat_epa EP111975 21.3000 -117.000 HU 90 2 21.3000 -117.000 TC 90 21.3000 -117.000 4 100 9 283
1975241N10260 1975 81 EP MM KATRINA 1975-09-04 15:00:00 TS 21.4023 -117.490 main 661 661 P________PP___ EP111975 21.3999 -117.493 HU 85 2 21.3999 -117.493 TC 85 21.4119 -117.481 4 92 9 282
1975241N10260 1975 81 EP MM KATRINA 1975-09-04 18:00:00 TS 21.5044 -117.995 80 hurdat_epa main 697 697 O________OP___ hurdat_epa EP111975 21.5000 -118.000 HU 80 1 21.5000 -118.000 TC 80 21.5220 -117.977 4 85 10 283
1975241N10260 1975 81 EP MM KATRINA 1975-09-04 21:00:00 TS 21.6101 -118.497 main 736 736 P________PP___ EP111975 21.6074 -118.500 HU 75 1 21.6074 -118.500 TC 75 21.6212 -118.485 4 77 10 282
1975241N10260 1975 81 EP MM KATRINA 1975-09-05 00:00:00 TS 21.7000 -119.000 70 hurdat_epa main 770 770 O________OO___ hurdat_epa EP111975 21.7000 -119.000 HU 70 1 21.7000 -119.000 TC 70 21.7000 -119.000 4 70 9 279
1975241N10260 1975 81 EP MM KATRINA 1975-09-05 03:00:00 TS 21.7626 -119.495 main 793 793 P________PP___ EP111975 21.7648 -119.493 HU 65 1 21.7648 -119.493 TC 65 21.7540 -119.506 4 65 9 276
1975241N10260 1975 81 EP MM KATRINA 1975-09-05 06:00:00 TS 21.7973 -120.004 60 hurdat_epa main 827 827 O________OP___ hurdat_epa EP111975 21.8000 -120.000 TS 60 0 21.8000 -120.000 TC 60 21.7865 -120.020 4 60 10 273
1975241N10260 1975 81 EP MM KATRINA 1975-09-05 09:00:00 TS 21.8062 -120.556 main 868 868 P________PP___ EP111975 21.8075 -120.558 TS 55 0 21.8075 -120.558 TC 55 21.8008 -120.549 4 55 10 270
1975241N10260 1975 81 EP MM KATRINA 1975-09-05 12:00:00 TS 21.8000 -121.100 50 hurdat_epa main 901 901 O________OO___ hurdat_epa EP111975 21.8000 -121.100 TS 50 0 21.8000 -121.100 TC 50 21.8000 -121.100 2 50 9 270
1975241N10260 1975 81 EP MM KATRINA 1975-09-05 15:00:00 TS 21.8032 -121.548 main 929 929 P________PP___ EP111975 21.8068 -121.520 TS 47 0 21.8068 -121.520 TC 47 21.7887 -121.662 2 47 9 270
1975241N10260 1975 81 EP MM KATRINA 1975-09-05 18:00:00 TS 21.7928 -122.050 45 hurdat_epa main 965 965 O________OP___ hurdat_epa EP111975 21.8000 -122.000 TS 45 0 21.8000 -122.000 TC 45 21.7639 -122.248 2 45 11 267
1975241N10260 1975 81 EP MM KATRINA 1975-09-05 21:00:00 TS 21.7527 -122.742 main 1018 1018 P________PP___ EP111975 21.7578 -122.713 TS 42 0 21.7578 -122.713 TC 42 21.7322 -122.859 2 42 14 266
1975241N10260 1975 81 EP MM KATRINA 1975-09-06 00:00:00 TS 21.7000 -123.500 40 hurdat_epa main 1088 1088 O________OO___ hurdat_epa EP111975 21.7000 -123.500 TS 40 0 21.7000 -123.500 TC 40 21.7000 -123.500 2 40 14 266
1975241N10260 1975 81 EP MM KATRINA 1975-09-06 03:00:00 TS 21.6479 -124.202 main 1151 1151 P________PP___ EP111975 21.6421 -124.208 TS 40 0 21.6421 -124.208 TC 40 21.6709 -124.179 2 37 13 266
1975241N10260 1975 81 EP MM KATRINA 1975-09-06 06:00:00 TS 21.6085 -124.897 40 hurdat_epa main 1209 1209 O________OP___ hurdat_epa EP111975 21.6000 -124.900 TS 40 0 21.6000 -124.900 TC 40 21.6424 -124.885 2 35 13 268
1975241N10260 1975 81 EP MM KATRINA 1975-09-06 09:00:00 TS 21.5974 -125.606 main 1268 1268 P________PP___ EP111975 21.5923 -125.607 TS 35 0 21.5923 -125.607 TC 35 21.6177 -125.598 2 32 13 270
1975241N10260 1975 81 EP MM KATRINA 1975-09-06 12:00:00 TS 21.6000 -126.300 30 hurdat_epa main 1328 1328 O________OO___ hurdat_epa EP111975 21.6000 -126.300 TD 30 -1 21.6000 -126.300 TC 30 21.6000 -126.300 1 30 13 270
1975241N10260 1975 81 EP MM KATRINA 1975-09-06 15:00:00 TS 21.5981 -126.961 main 1389 1389 P________PP___ EP111975 21.5997 -126.957 TD 27 -1 21.5997 -126.957 TC 27 21.5919 -126.976 1 28 12 270
1975241N10260 1975 81 EP MM KATRINA 1975-09-06 18:00:00 TS 21.5983 -127.606 25 hurdat_epa main 1442 1442 O________OP___ hurdat_epa EP111975 21.6000 -127.600 TD 25 -1 21.6000 -127.600 TC 25 21.5913 -127.630 1 27 12 270
1975241N10260 1975 81 EP MM KATRINA 1975-09-06 21:00:00 TS 21.5995 -128.252 main 1504 1504 P________PP___ EP111975 21.6006 -128.247 TD 25 -1 21.6006 -128.247 TC 25 21.5951 -128.269 1 26 12 270
1975241N10260 1975 81 EP MM KATRINA 1975-09-07 00:00:00 TS 21.6000 -128.900 25 hurdat_epa main 1559 O________OO___ hurdat_epa EP111975 21.6000 -128.900 TD 25 -1 21.6000 -128.900 TC 25 21.6000 -128.900 1 25 12 270

IBTrACS Databaseについて

本データベースは、米国NOAAが公開する1842年以降の世界の熱帯低気圧のベストトラックデータアーカイブInternational Best Track Archive for Climate Stewardship (IBTrACS)を、ウェブで閲覧しやすい形式に変換したものです。

最終更新日:2021-12-03